Chitose — JD2925 — position and weather

sailwx.info

Track history (hours):
 
Tides and Currents Weather Stations Pressure Air Temp Water Temp Dewpoint Dewpoint Depression Visibility Wind Speed Wind Dir Waves Ship Positions

Chitose

Last reported at 2017-Jun-23 02:13 UTC. Time now 2017-Jun-23 08:52 UTC.
Position N 35°27' E 139°39'.

Length 33 m; draft 3.8 m.

Type: Tug. MMSI: 431000953.

Date/timePositionNaut miles runAvg speedWind from/ knotsBaromVisibWave heightAir tempDewpointWater temp
2017-Jun-23 02:13N 35°27' E 139°39'0 0.0
2017-Jun-23 02:00N 35°27' E 139°39'0 0.0
2017-Jun-23 01:30N 35°27' E 139°39'0 0.0
2017-Jun-23 01:00N 35°27' E 139°39'0 0.0
2017-Jun-23 00:30N 35°27' E 139°39'0 0.0
2017-Jun-23 00:00N 35°27' E 139°39'0 0.0
2017-Jun-22 23:30N 35°27' E 139°39'2 3.4
2017-Jun-22 23:00N 35°28' E 139°40'1 1.9
2017-Jun-22 22:30N 35°28' E 139°42'0 0.6
2017-Jun-22 22:00N 35°28' E 139°42'2 3.9
2017-Jun-22 21:30N 35°26' E 139°43'1 1.3
2017-Jun-22 21:00N 35°26' E 139°44'3 5.5
2017-Jun-22 20:31N 35°27' E 139°41'2 3.8
2017-Jun-22 20:00N 35°27' E 139°39'0 0.0
2017-Jun-22 11:44N 35°27' E 139°39'1 3.8
2017-Jun-22 11:30N 35°27' E 139°40'2 3.1
2017-Jun-22 11:01N 35°26' E 139°41'2 3.5
2017-Jun-22 10:30N 35°26' E 139°43'1 2.2
2017-Jun-22 10:00N 35°27' E 139°42'0 0.0
2017-Jun-22 09:30N 35°27' E 139°42'0 0.0
2017-Jun-22 09:00N 35°27' E 139°42'0 0.0
2017-Jun-22 08:30N 35°27' E 139°42'1 1.4
2017-Jun-22 08:00N 35°28' E 139°42'0 0.9
2017-Jun-22 07:30N 35°28' E 139°42'2 4.1
2017-Jun-22 07:00N 35°27' E 139°39'0 0.0
2017-Jun-22 06:30N 35°27' E 139°39'0 0.0
2017-Jun-22 06:00N 35°27' E 139°39'0 0.0
2017-Jun-22 05:30N 35°27' E 139°39'0 0.0
2017-Jun-22 05:00N 35°27' E 139°39'0 0.0
2017-Jun-22 04:30N 35°27' E 139°39'0 0.0
2017-Jun-22 04:00N 35°27' E 139°39'0 0.0
2017-Jun-22 03:30N 35°27' E 139°39'0 0.0
2017-Jun-22 03:00N 35°27' E 139°39'0 0.0
2017-Jun-22 02:30N 35°27' E 139°39'0 0.0
2017-Jun-22 02:01N 35°27' E 139°39'4 7.9
2017-Jun-22 01:30N 35°23' E 139°41'2 4.4
2017-Jun-22 01:00N 35°24' E 139°39'0 0.9
2017-Jun-22 00:30N 35°24' E 139°38'0 0.2
2017-Jun-22 00:00N 35°24' E 139°38'2 4.8
2017-Jun-21 23:30N 35°23' E 139°41'4 8.6
2017-Jun-21 23:00N 35°27' E 139°39'1 1.1
2017-Jun-21 22:30N 35°27' E 139°39'0 0.0
2017-Jun-21 07:49N 35°27' E 139°39'0 1.5
2017-Jun-21 07:30N 35°27' E 139°39'0 0.6
2017-Jun-21 07:00N 35°27' E 139°39'0 0.0
2017-Jun-21 06:30N 35°27' E 139°39'0 0.0
2017-Jun-21 06:00N 35°27' E 139°39'1 2.5
2017-Jun-21 05:30N 35°28' E 139°40'510.9
2017-Jun-21 05:01N 35°31' E 139°46'0 0.3
2017-Jun-21 04:30N 35°31' E 139°46'0 0.6
2017-Jun-21 04:01N 35°31' E 139°46'611.1
2017-Jun-21 03:30N 35°28' E 139°40'2 3.3
2017-Jun-21 03:00N 35°27' E 139°39'0 0.0
2017-Jun-21 02:30N 35°27' E 139°39'0 0.0
2017-Jun-21 02:00N 35°27' E 139°39'0 0.0
2017-Jun-21 01:30N 35°27' E 139°39'0 0.0
2017-Jun-21 01:00N 35°27' E 139°39'0 0.0
2017-Jun-21 00:30N 35°27' E 139°39'0 0.0
2017-Jun-21 00:00N 35°27' E 139°39'0 0.0
2017-Jun-20 23:30N 35°27' E 139°39'0 0.0
2017-Jun-20 23:00N 35°27' E 139°39'1 1.6
2017-Jun-20 22:30N 35°27' E 139°40'2 3.1
2017-Jun-20 22:01N 35°26' E 139°41'1 1.8
2017-Jun-20 21:30N 35°26' E 139°42'1 1.7
2017-Jun-20 21:00N 35°27' E 139°41'2 4.7
2017-Jun-20 20:30N 35°27' E 139°39'0 0.0
2017-Jun-20 20:00N 35°27' E 139°39'0 0.0
2017-Jun-20 10:20N 35°27' E 139°39'3 7.7
2017-Jun-20 10:00N 35°28' E 139°41'0 0.1
2017-Jun-20 09:30N 35°28' E 139°41'3 5.2
2017-Jun-20 09:01N 35°27' E 139°39'0 0.1
2017-Jun-20 08:30N 35°27' E 139°39'0 0.0
2017-Jun-20 08:00N 35°27' E 139°39'0 0.0
2017-Jun-20 07:30N 35°27' E 139°39'0 0.0
2017-Jun-20 07:00N 35°27' E 139°39'0 0.0
2017-Jun-20 06:30N 35°27' E 139°39'0 0.0
2017-Jun-20 06:00N 35°27' E 139°39'0 0.0
2017-Jun-20 05:30N 35°27' E 139°39'3 6.1
2017-Jun-20 05:00N 35°29' E 139°42'4 8.3
2017-Jun-20 04:31N 35°31' E 139°46'0 0.4
2017-Jun-20 04:01N 35°31' E 139°46'2 4.2
2017-Jun-20 03:30N 35°30' E 139°44'2 4.5
2017-Jun-20 03:00N 35°27' E 139°44'1 1.1
2017-Jun-20 02:30N 35°28' E 139°43'3 6.1
2017-Jun-20 02:00N 35°27' E 139°40'1 1.6
2017-Jun-20 01:30N 35°27' E 139°39'0 0.0
2017-Jun-20 01:00N 35°27' E 139°39'0 0.0
2017-Jun-20 00:30N 35°27' E 139°39'0 0.0
2017-Jun-20 00:00N 35°27' E 139°39'0 0.0
2017-Jun-19 23:30N 35°27' E 139°39'0 0.0
2017-Jun-19 23:00N 35°27' E 139°39'0 0.0
2017-Jun-19 22:30N 35°27' E 139°39'0 0.0
2017-Jun-18 22:23N 35°28' E 139°39'2 5.3
2017-Jun-18 22:01N 35°26' E 139°41'1 2.6
2017-Jun-18 21:31N 35°26' E 139°42'0 0.7
2017-Jun-18 21:01N 35°26' E 139°42'0 1.0
2017-Jun-18 20:31N 35°25' E 139°42'2 3.4
2017-Jun-18 20:01N 35°24' E 139°41'0 0.7
2017-Jun-18 19:31N 35°24' E 139°41'2 3.0
2017-Jun-18 19:01N 35°26' E 139°42'0 0.0
2017-Jun-18 18:31N 35°26' E 139°42'0 0.0
2017-Jun-18 18:01N 35°26' E 139°42'0 0.0
2017-Jun-18 17:31N 35°26' E 139°42'0 0.0
2017-Jun-18 17:00N 35°26' E 139°42'0 0.0
2017-Jun-18 16:31N 35°26' E 139°42'0 0.0
2017-Jun-18 16:01N 35°26' E 139°42'2 4.1
2017-Jun-18 15:30N 35°24' E 139°40'0 0.7
2017-Jun-18 15:01N 35°24' E 139°41'1 0.8
2017-Jun-18 14:01N 35°24' E 139°40'0 0.0
2017-Jun-18 13:31N 35°24' E 139°40'0 0.0
2017-Jun-18 13:00N 35°24' E 139°40'0 0.3
2017-Jun-18 12:31N 35°24' E 139°40'3 6.5
2017-Jun-18 12:01N 35°27' E 139°41'0 0.4
2017-Jun-18 11:31N 35°26' E 139°41'1 1.4
2017-Jun-18 11:01N 35°26' E 139°42'0 0.0
2017-Jun-18 10:30N 35°26' E 139°42'0 0.0
2017-Jun-18 10:01N 35°26' E 139°42'0 0.0
2017-Jun-18 09:31N 35°26' E 139°42'0 0.0
2017-Jun-18 09:01N 35°26' E 139°42'0 0.0
2017-Jun-18 08:31N 35°26' E 139°42'0 0.0
2017-Jun-18 08:01N 35°26' E 139°42'0 0.0
2017-Jun-18 07:31N 35°26' E 139°42'1 1.5
2017-Jun-18 07:00N 35°27' E 139°41'0 0.4
2017-Jun-18 06:31N 35°26' E 139°41'2 4.2
2017-Jun-18 06:01N 35°27' E 139°39'0 0.0
2017-Jun-18 05:31N 35°27' E 139°39'0 0.0
2017-Jun-18 05:01N 35°27' E 139°39'0 0.0
2017-Jun-18 04:31N 35°27' E 139°39'0 0.0
2017-Jun-18 04:01N 35°27' E 139°39'0 0.0
2017-Jun-18 03:31N 35°27' E 139°39'0 0.0
2017-Jun-18 03:01N 35°27' E 139°39'0 0.0
2017-Jun-18 02:31N 35°27' E 139°39'0 0.0
2017-Jun-18 02:01N 35°27' E 139°39'0 0.0
2017-Jun-18 01:31N 35°27' E 139°39'0 0.0
2017-Jun-18 01:01N 35°27' E 139°39'0 0.0
2017-Jun-18 00:31N 35°27' E 139°39'0 0.0
2017-Jun-18 00:01N 35°27' E 139°39'0 0.0
2017-Jun-17 23:31N 35°27' E 139°39'0 0.0
2017-Jun-17 23:01N 35°27' E 139°39'0 0.0
2017-Jun-17 22:31N 35°27' E 139°39'0 0.0
2017-Jun-17 02:33N 35°27' E 139°39'0 0.0
2017-Jun-17 02:30N 35°27' E 139°39'3 6.1
2017-Jun-17 02:00N 35°25' E 139°41'1 1.1
2017-Jun-17 01:30N 35°25' E 139°41'1 1.2
2017-Jun-17 01:00N 35°26' E 139°41'2 3.9
2017-Jun-17 00:30N 35°27' E 139°43'3 5.1
2017-Jun-17 00:00N 35°30' E 139°43'0 0.1
2017-Jun-16 23:31N 35°30' E 139°43'3 5.7
2017-Jun-16 23:00N 35°28' E 139°41'2 3.5
2017-Jun-16 22:30N 35°27' E 139°39'0 0.0
2017-Jun-16 22:00N 35°27' E 139°39'0 0.0
2017-Jun-16 08:53N 35°27' E 139°39'0 0.0
2017-Jun-16 08:30N 35°27' E 139°39'0 0.0
2017-Jun-16 08:00N 35°27' E 139°39'0 0.0
2017-Jun-16 07:30N 35°27' E 139°39'0 0.0
2017-Jun-16 07:00N 35°27' E 139°39'1 2.9
2017-Jun-16 06:30N 35°27' E 139°40'1 1.6
2017-Jun-16 06:00N 35°27' E 139°41'0 0.2
2017-Jun-16 05:30N 35°27' E 139°41'1 2.0
2017-Jun-16 05:00N 35°28' E 139°40'0 0.0
2017-Jun-16 04:30N 35°28' E 139°40'0 0.0
2017-Jun-16 04:00N 35°28' E 139°40'0 0.0
2017-Jun-16 03:30N 35°28' E 139°40'0 0.0
2017-Jun-16 03:00N 35°28' E 139°40'0 0.0
2017-Jun-16 02:31N 35°28' E 139°40'5 9.3
2017-Jun-16 02:00N 35°30' E 139°45'1 2.5
2017-Jun-16 01:30N 35°31' E 139°46'0 0.0
2017-Jun-16 01:00N 35°31' E 139°46'0 0.3
2017-Jun-16 00:30N 35°31' E 139°46'1 1.6
2017-Jun-16 00:00N 35°31' E 139°45'0 0.7
2017-Jun-15 23:29N 35°30' E 139°46'0 0.0
2017-Jun-15 23:00N 35°30' E 139°46'3 5.3
2017-Jun-15 22:30N 35°29' E 139°43'0 0.9
2017-Jun-15 22:00N 35°29' E 139°42'1 2.6
2017-Jun-15 21:30N 35°28' E 139°41'2 4.9
2017-Jun-15 21:00N 35°27' E 139°39'0 0.0
2017-Jun-15 20:30N 35°27' E 139°39'0 0.0
2017-Jun-15 20:00N 35°27' E 139°39'0 0.0
2017-Jun-15 19:30N 35°27' E 139°39'0 0.0
2017-Jun-15 08:52N 35°27' E 139°39'0 0.0
2017-Jun-15 08:30N 35°27' E 139°39'0 0.0
2017-Jun-15 08:00N 35°27' E 139°39'0 0.0
2017-Jun-15 07:30N 35°27' E 139°39'0 0.0
2017-Jun-15 07:00N 35°27' E 139°39'0 0.0
2017-Jun-15 06:30N 35°27' E 139°39'0 0.0
2017-Jun-15 06:00N 35°27' E 139°39'0 0.0
2017-Jun-15 05:30N 35°27' E 139°39'0 0.0
2017-Jun-15 05:00N 35°27' E 139°39'0 0.0
2017-Jun-15 04:30N 35°27' E 139°39'0 0.0
2017-Jun-15 04:00N 35°27' E 139°39'0 0.0
2017-Jun-15 03:30N 35°27' E 139°39'0 0.0
2017-Jun-15 03:00N 35°27' E 139°39'3 6.6
2017-Jun-15 02:30N 35°29' E 139°42'4 7.7
2017-Jun-15 02:00N 35°31' E 139°46'1 2.2
2017-Jun-15 01:30N 35°30' E 139°45'3 6.8
2017-Jun-15 01:00N 35°28' E 139°43'1 1.9
2017-Jun-15 00:31N 35°27' E 139°42'3 5.3
2017-Jun-15 00:00N 35°27' E 139°39'0 0.0
2017-Jun-14 23:30N 35°27' E 139°39'0 0.0
2017-Jun-14 23:00N 35°27' E 139°39'0 0.0
2017-Jun-14 07:02N 35°27' E 139°39'0 0.0
2017-Jun-14 07:00N 35°27' E 139°39'0 0.0
2017-Jun-14 06:30N 35°27' E 139°39'0 0.0
2017-Jun-14 06:00N 35°27' E 139°39'0 0.0
2017-Jun-14 05:30N 35°27' E 139°39'0 0.0
2017-Jun-14 05:00N 35°27' E 139°39'0 0.0
2017-Jun-14 04:30N 35°27' E 139°39'0 0.0
2017-Jun-14 04:00N 35°27' E 139°39'0 0.0
2017-Jun-14 03:30N 35°27' E 139°39'0 0.0
2017-Jun-14 03:00N 35°27' E 139°39'0 0.0
2017-Jun-14 02:30N 35°27' E 139°39'0 0.0
2017-Jun-14 02:00N 35°27' E 139°39'0 0.0
2017-Jun-14 01:30N 35°27' E 139°39'0 0.0
2017-Jun-14 01:00N 35°27' E 139°39'0 0.0
2017-Jun-14 00:30N 35°27' E 139°39'0 0.0
2017-Jun-14 00:00N 35°27' E 139°39'0 0.0
2017-Jun-13 23:30N 35°27' E 139°39'4 7.7
2017-Jun-13 23:00N 35°29' E 139°43'0 0.3
2017-Jun-13 22:30N 35°29' E 139°43'1 2.1
2017-Jun-13 22:01N 35°29' E 139°42'3 5.4
2017-Jun-13 21:30N 35°27' E 139°44'2 4.6
2017-Jun-13 21:00N 35°27' E 139°47'3 6.8
2017-Jun-13 20:30N 35°27' E 139°43'3 6.6
2017-Jun-13 20:00N 35°27' E 139°39'0 0.0
2017-Jun-13 19:30N 35°27' E 139°39'0 0.0
2017-Jun-13 19:00N 35°27' E 139°39'0 0.0
2017-Jun-13 18:30N 35°27' E 139°39'0 0.0
2017-Jun-13 18:00N 35°27' E 139°39'0 0.0
2017-Jun-13 17:30N 35°27' E 139°39'0 0.0
2017-Jun-13 17:00N 35°27' E 139°39'0 0.0
2017-Jun-13 16:30N 35°27' E 139°39'0 0.0
2017-Jun-13 16:00N 35°27' E 139°39'0 0.0
2017-Jun-13 15:30N 35°27' E 139°39'0 0.0
2017-Jun-13 15:00N 35°27' E 139°39'0 0.0
2017-Jun-13 14:00N 35°27' E 139°39'0 0.0
2017-Jun-13 13:30N 35°27' E 139°39'0 0.0
2017-Jun-13 13:00N 35°27' E 139°39'0 0.0
2017-Jun-13 12:30N 35°27' E 139°39'0 0.7
2017-Jun-13 12:00N 35°28' E 139°39'611.4
2017-Jun-13 11:30N 35°30' E 139°45'1 1.5
2017-Jun-13 11:00N 35°31' E 139°46'1 2.8
2017-Jun-13 10:30N 35°30' E 139°44'5 9.8
2017-Jun-13 10:01N 35°27' E 139°39'0 0.1
2017-Jun-13 09:30N 35°27' E 139°39'1 1.4
2017-Jun-13 09:00N 35°27' E 139°39'0 0.2
2017-Jun-13 08:30N 35°27' E 139°39'0 0.0
2017-Jun-13 08:00N 35°27' E 139°39'0 0.0
2017-Jun-13 07:30N 35°27' E 139°39'0 0.0
2017-Jun-13 07:00N 35°27' E 139°39'0 0.0
2017-Jun-13 06:29N 35°27' E 139°39'0 0.0
2017-Jun-13 06:00N 35°27' E 139°39'0 0.0
2017-Jun-13 05:29N 35°27' E 139°39'0 0.0
2017-Jun-13 04:56N 35°27' E 139°39'0 0.0
2017-Jun-13 04:29N 35°27' E 139°39'0 0.0
2017-Jun-13 03:59N 35°27' E 139°39'0 0.0
2017-Jun-13 03:30N 35°27' E 139°39'0 0.0
2017-Jun-13 03:00N 35°27' E 139°39'0 0.0
2017-Jun-13 02:29N 35°27' E 139°39'  
Track history (hours):
 
Tides and Currents Weather Stations Pressure Air Temp Water Temp Dewpoint Dewpoint Depression Visibility Wind Speed Wind Dir Waves Ship Positions

Chitose

Last reported at 2017-Jun-23 02:13 UTC. Time now 2017-Jun-23 08:52 UTC.
Position N 35°27' E 139°39'.

Length 33 m; draft 3.8 m.

Type: Tug. MMSI: 431000953.

Date/timePositionNaut miles runAvg speedWind from/ knotsBaromVisibWave heightAir tempDewpointWater temp
2017-Jun-23 02:13N 35°27' E 139°39'0 0.0
2017-Jun-23 02:00N 35°27' E 139°39'0 0.0
2017-Jun-23 01:30N 35°27' E 139°39'0 0.0
2017-Jun-23 01:00N 35°27' E 139°39'0 0.0
2017-Jun-23 00:30N 35°27' E 139°39'0 0.0
2017-Jun-23 00:00N 35°27' E 139°39'0 0.0
2017-Jun-22 23:30N 35°27' E 139°39'2 3.4
2017-Jun-22 23:00N 35°28' E 139°40'1 1.9
2017-Jun-22 22:30N 35°28' E 139°42'0 0.6
2017-Jun-22 22:00N 35°28' E 139°42'2 3.9
2017-Jun-22 21:30N 35°26' E 139°43'1 1.3
2017-Jun-22 21:00N 35°26' E 139°44'3 5.5
2017-Jun-22 20:31N 35°27' E 139°41'2 3.8
2017-Jun-22 20:00N 35°27' E 139°39'0 0.0
2017-Jun-22 11:44N 35°27' E 139°39'1 3.8
2017-Jun-22 11:30N 35°27' E 139°40'2 3.1
2017-Jun-22 11:01N 35°26' E 139°41'2 3.5
2017-Jun-22 10:30N 35°26' E 139°43'1 2.2
2017-Jun-22 10:00N 35°27' E 139°42'0 0.0
2017-Jun-22 09:30N 35°27' E 139°42'0 0.0
2017-Jun-22 09:00N 35°27' E 139°42'0 0.0
2017-Jun-22 08:30N 35°27' E 139°42'1 1.4
2017-Jun-22 08:00N 35°28' E 139°42'0 0.9
2017-Jun-22 07:30N 35°28' E 139°42'2 4.1
2017-Jun-22 07:00N 35°27' E 139°39'0 0.0
2017-Jun-22 06:30N 35°27' E 139°39'0 0.0
2017-Jun-22 06:00N 35°27' E 139°39'0 0.0
2017-Jun-22 05:30N 35°27' E 139°39'0 0.0
2017-Jun-22 05:00N 35°27' E 139°39'0 0.0
2017-Jun-22 04:30N 35°27' E 139°39'0 0.0
2017-Jun-22 04:00N 35°27' E 139°39'0 0.0
2017-Jun-22 03:30N 35°27' E 139°39'0 0.0
2017-Jun-22 03:00N 35°27' E 139°39'0 0.0
2017-Jun-22 02:30N 35°27' E 139°39'0 0.0
2017-Jun-22 02:01N 35°27' E 139°39'4 7.9
2017-Jun-22 01:30N 35°23' E 139°41'2 4.4
2017-Jun-22 01:00N 35°24' E 139°39'0 0.9
2017-Jun-22 00:30N 35°24' E 139°38'0 0.2
2017-Jun-22 00:00N 35°24' E 139°38'2 4.8
2017-Jun-21 23:30N 35°23' E 139°41'4 8.6
2017-Jun-21 23:00N 35°27' E 139°39'1 1.1
2017-Jun-21 22:30N 35°27' E 139°39'0 0.0
2017-Jun-21 07:49N 35°27' E 139°39'0 1.5
2017-Jun-21 07:30N 35°27' E 139°39'0 0.6
2017-Jun-21 07:00N 35°27' E 139°39'0 0.0
2017-Jun-21 06:30N 35°27' E 139°39'0 0.0
2017-Jun-21 06:00N 35°27' E 139°39'1 2.5
2017-Jun-21 05:30N 35°28' E 139°40'510.9
2017-Jun-21 05:01N 35°31' E 139°46'0 0.3
2017-Jun-21 04:30N 35°31' E 139°46'0 0.6
2017-Jun-21 04:01N 35°31' E 139°46'611.1
2017-Jun-21 03:30N 35°28' E 139°40'2 3.3
2017-Jun-21 03:00N 35°27' E 139°39'0 0.0
2017-Jun-21 02:30N 35°27' E 139°39'0 0.0
2017-Jun-21 02:00N 35°27' E 139°39'0 0.0
2017-Jun-21 01:30N 35°27' E 139°39'0 0.0
2017-Jun-21 01:00N 35°27' E 139°39'0 0.0
2017-Jun-21 00:30N 35°27' E 139°39'0 0.0
2017-Jun-21 00:00N 35°27' E 139°39'0 0.0
2017-Jun-20 23:30N 35°27' E 139°39'0 0.0
2017-Jun-20 23:00N 35°27' E 139°39'1 1.6
2017-Jun-20 22:30N 35°27' E 139°40'2 3.1
2017-Jun-20 22:01N 35°26' E 139°41'1 1.8
2017-Jun-20 21:30N 35°26' E 139°42'1 1.7
2017-Jun-20 21:00N 35°27' E 139°41'2 4.7
2017-Jun-20 20:30N 35°27' E 139°39'0 0.0
2017-Jun-20 20:00N 35°27' E 139°39'0 0.0
2017-Jun-20 10:20N 35°27' E 139°39'3 7.7
2017-Jun-20 10:00N 35°28' E 139°41'0 0.1
2017-Jun-20 09:30N 35°28' E 139°41'3 5.2
2017-Jun-20 09:01N 35°27' E 139°39'0 0.1
2017-Jun-20 08:30N 35°27' E 139°39'0 0.0
2017-Jun-20 08:00N 35°27' E 139°39'0 0.0
2017-Jun-20 07:30N 35°27' E 139°39'0 0.0
2017-Jun-20 07:00N 35°27' E 139°39'0 0.0
2017-Jun-20 06:30N 35°27' E 139°39'0 0.0
2017-Jun-20 06:00N 35°27' E 139°39'0 0.0
2017-Jun-20 05:30N 35°27' E 139°39'3 6.1
2017-Jun-20 05:00N 35°29' E 139°42'4 8.3
2017-Jun-20 04:31N 35°31' E 139°46'0 0.4
2017-Jun-20 04:01N 35°31' E 139°46'2 4.2
2017-Jun-20 03:30N 35°30' E 139°44'2 4.5
2017-Jun-20 03:00N 35°27' E 139°44'1 1.1
2017-Jun-20 02:30N 35°28' E 139°43'3 6.1
2017-Jun-20 02:00N 35°27' E 139°40'1 1.6
2017-Jun-20 01:30N 35°27' E 139°39'0 0.0
2017-Jun-20 01:00N 35°27' E 139°39'0 0.0
2017-Jun-20 00:30N 35°27' E 139°39'0 0.0
2017-Jun-20 00:00N 35°27' E 139°39'0 0.0
2017-Jun-19 23:30N 35°27' E 139°39'0 0.0
2017-Jun-19 23:00N 35°27' E 139°39'0 0.0
2017-Jun-19 22:30N 35°27' E 139°39'0 0.0
2017-Jun-18 22:23N 35°28' E 139°39'2 5.3
2017-Jun-18 22:01N 35°26' E 139°41'1 2.6
2017-Jun-18 21:31N 35°26' E 139°42'0 0.7
2017-Jun-18 21:01N 35°26' E 139°42'0 1.0
2017-Jun-18 20:31N 35°25' E 139°42'2 3.4
2017-Jun-18 20:01N 35°24' E 139°41'0 0.7
2017-Jun-18 19:31N 35°24' E 139°41'2 3.0
2017-Jun-18 19:01N 35°26' E 139°42'0 0.0
2017-Jun-18 18:31N 35°26' E 139°42'0 0.0
2017-Jun-18 18:01N 35°26' E 139°42'0 0.0
2017-Jun-18 17:31N 35°26' E 139°42'0 0.0
2017-Jun-18 17:00N 35°26' E 139°42'0 0.0
2017-Jun-18 16:31N 35°26' E 139°42'0 0.0
2017-Jun-18 16:01N 35°26' E 139°42'2 4.1
2017-Jun-18 15:30N 35°24' E 139°40'0 0.7
2017-Jun-18 15:01N 35°24' E 139°41'1 0.8
2017-Jun-18 14:01N 35°24' E 139°40'0 0.0
2017-Jun-18 13:31N 35°24' E 139°40'0 0.0
2017-Jun-18 13:00N 35°24' E 139°40'0 0.3
2017-Jun-18 12:31N 35°24' E 139°40'3 6.5
2017-Jun-18 12:01N 35°27' E 139°41'0 0.4
2017-Jun-18 11:31N 35°26' E 139°41'1 1.4
2017-Jun-18 11:01N 35°26' E 139°42'0 0.0
2017-Jun-18 10:30N 35°26' E 139°42'0 0.0
2017-Jun-18 10:01N 35°26' E 139°42'0 0.0
2017-Jun-18 09:31N 35°26' E 139°42'0 0.0
2017-Jun-18 09:01N 35°26' E 139°42'0 0.0
2017-Jun-18 08:31N 35°26' E 139°42'0 0.0
2017-Jun-18 08:01N 35°26' E 139°42'0 0.0
2017-Jun-18 07:31N 35°26' E 139°42'1 1.5
2017-Jun-18 07:00N 35°27' E 139°41'0 0.4
2017-Jun-18 06:31N 35°26' E 139°41'2 4.2
2017-Jun-18 06:01N 35°27' E 139°39'0 0.0
2017-Jun-18 05:31N 35°27' E 139°39'0 0.0
2017-Jun-18 05:01N 35°27' E 139°39'0 0.0
2017-Jun-18 04:31N 35°27' E 139°39'0 0.0
2017-Jun-18 04:01N 35°27' E 139°39'0 0.0
2017-Jun-18 03:31N 35°27' E 139°39'0 0.0
2017-Jun-18 03:01N 35°27' E 139°39'0 0.0
2017-Jun-18 02:31N 35°27' E 139°39'0 0.0
2017-Jun-18 02:01N 35°27' E 139°39'0 0.0
2017-Jun-18 01:31N 35°27' E 139°39'0 0.0
2017-Jun-18 01:01N 35°27' E 139°39'0 0.0
2017-Jun-18 00:31N 35°27' E 139°39'0 0.0
2017-Jun-18 00:01N 35°27' E 139°39'0 0.0
2017-Jun-17 23:31N 35°27' E 139°39'0 0.0
2017-Jun-17 23:01N 35°27' E 139°39'0 0.0
2017-Jun-17 22:31N 35°27' E 139°39'0 0.0
2017-Jun-17 02:33N 35°27' E 139°39'0 0.0
2017-Jun-17 02:30N 35°27' E 139°39'3 6.1
2017-Jun-17 02:00N 35°25' E 139°41'1 1.1
2017-Jun-17 01:30N 35°25' E 139°41'1 1.2
2017-Jun-17 01:00N 35°26' E 139°41'2 3.9
2017-Jun-17 00:30N 35°27' E 139°43'3 5.1
2017-Jun-17 00:00N 35°30' E 139°43'0 0.1
2017-Jun-16 23:31N 35°30' E 139°43'3 5.7
2017-Jun-16 23:00N 35°28' E 139°41'2 3.5
2017-Jun-16 22:30N 35°27' E 139°39'0 0.0
2017-Jun-16 22:00N 35°27' E 139°39'0 0.0
2017-Jun-16 08:53N 35°27' E 139°39'0 0.0
2017-Jun-16 08:30N 35°27' E 139°39'0 0.0
2017-Jun-16 08:00N 35°27' E 139°39'0 0.0
2017-Jun-16 07:30N 35°27' E 139°39'0 0.0
2017-Jun-16 07:00N 35°27' E 139°39'1 2.9
2017-Jun-16 06:30N 35°27' E 139°40'1 1.6
2017-Jun-16 06:00N 35°27' E 139°41'0 0.2
2017-Jun-16 05:30N 35°27' E 139°41'1 2.0
2017-Jun-16 05:00N 35°28' E 139°40'0 0.0
2017-Jun-16 04:30N 35°28' E 139°40'0 0.0
2017-Jun-16 04:00N 35°28' E 139°40'0 0.0
2017-Jun-16 03:30N 35°28' E 139°40'0 0.0
2017-Jun-16 03:00N 35°28' E 139°40'0 0.0
2017-Jun-16 02:31N 35°28' E 139°40'5 9.3
2017-Jun-16 02:00N 35°30' E 139°45'1 2.5
2017-Jun-16 01:30N 35°31' E 139°46'0 0.0
2017-Jun-16 01:00N 35°31' E 139°46'0 0.3
2017-Jun-16 00:30N 35°31' E 139°46'1 1.6
2017-Jun-16 00:00N 35°31' E 139°45'0 0.7
2017-Jun-15 23:29N 35°30' E 139°46'0 0.0
2017-Jun-15 23:00N 35°30' E 139°46'3 5.3
2017-Jun-15 22:30N 35°29' E 139°43'0 0.9
2017-Jun-15 22:00N 35°29' E 139°42'1 2.6
2017-Jun-15 21:30N 35°28' E 139°41'2 4.9
2017-Jun-15 21:00N 35°27' E 139°39'0 0.0
2017-Jun-15 20:30N 35°27' E 139°39'0 0.0
2017-Jun-15 20:00N 35°27' E 139°39'0 0.0
2017-Jun-15 19:30N 35°27' E 139°39'0 0.0
2017-Jun-15 08:52N 35°27' E 139°39'0 0.0
2017-Jun-15 08:30N 35°27' E 139°39'0 0.0
2017-Jun-15 08:00N 35°27' E 139°39'0 0.0
2017-Jun-15 07:30N 35°27' E 139°39'0 0.0
2017-Jun-15 07:00N 35°27' E 139°39'0 0.0
2017-Jun-15 06:30N 35°27' E 139°39'0 0.0
2017-Jun-15 06:00N 35°27' E 139°39'0 0.0
2017-Jun-15 05:30N 35°27' E 139°39'0 0.0
2017-Jun-15 05:00N 35°27' E 139°39'0 0.0
2017-Jun-15 04:30N 35°27' E 139°39'0 0.0
2017-Jun-15 04:00N 35°27' E 139°39'0 0.0
2017-Jun-15 03:30N 35°27' E 139°39'0 0.0
2017-Jun-15 03:00N 35°27' E 139°39'3 6.6
2017-Jun-15 02:30N 35°29' E 139°42'4 7.7
2017-Jun-15 02:00N 35°31' E 139°46'1 2.2
2017-Jun-15 01:30N 35°30' E 139°45'3 6.8
2017-Jun-15 01:00N 35°28' E 139°43'1 1.9
2017-Jun-15 00:31N 35°27' E 139°42'3 5.3
2017-Jun-15 00:00N 35°27' E 139°39'0 0.0
2017-Jun-14 23:30N 35°27' E 139°39'0 0.0
2017-Jun-14 23:00N 35°27' E 139°39'0 0.0
2017-Jun-14 07:02N 35°27' E 139°39'0 0.0
2017-Jun-14 07:00N 35°27' E 139°39'0 0.0
2017-Jun-14 06:30N 35°27' E 139°39'0 0.0
2017-Jun-14 06:00N 35°27' E 139°39'0 0.0
2017-Jun-14 05:30N 35°27' E 139°39'0 0.0
2017-Jun-14 05:00N 35°27' E 139°39'0 0.0
2017-Jun-14 04:30N 35°27' E 139°39'0 0.0
2017-Jun-14 04:00N 35°27' E 139°39'0 0.0
2017-Jun-14 03:30N 35°27' E 139°39'0 0.0
2017-Jun-14 03:00N 35°27' E 139°39'0 0.0
2017-Jun-14 02:30N 35°27' E 139°39'0 0.0
2017-Jun-14 02:00N 35°27' E 139°39'0 0.0
2017-Jun-14 01:30N 35°27' E 139°39'0 0.0
2017-Jun-14 01:00N 35°27' E 139°39'0 0.0
2017-Jun-14 00:30N 35°27' E 139°39'0 0.0
2017-Jun-14 00:00N 35°27' E 139°39'0 0.0
2017-Jun-13 23:30N 35°27' E 139°39'4 7.7
2017-Jun-13 23:00N 35°29' E 139°43'0 0.3
2017-Jun-13 22:30N 35°29' E 139°43'1 2.1
2017-Jun-13 22:01N 35°29' E 139°42'3 5.4
2017-Jun-13 21:30N 35°27' E 139°44'2 4.6
2017-Jun-13 21:00N 35°27' E 139°47'3 6.8
2017-Jun-13 20:30N 35°27' E 139°43'3 6.6
2017-Jun-13 20:00N 35°27' E 139°39'0 0.0
2017-Jun-13 19:30N 35°27' E 139°39'0 0.0
2017-Jun-13 19:00N 35°27' E 139°39'0 0.0
2017-Jun-13 18:30N 35°27' E 139°39'0 0.0
2017-Jun-13 18:00N 35°27' E 139°39'0 0.0
2017-Jun-13 17:30N 35°27' E 139°39'0 0.0
2017-Jun-13 17:00N 35°27' E 139°39'0 0.0
2017-Jun-13 16:30N 35°27' E 139°39'0 0.0
2017-Jun-13 16:00N 35°27' E 139°39'0 0.0
2017-Jun-13 15:30N 35°27' E 139°39'0 0.0
2017-Jun-13 15:00N 35°27' E 139°39'0 0.0
2017-Jun-13 14:00N 35°27' E 139°39'0 0.0
2017-Jun-13 13:30N 35°27' E 139°39'0 0.0
2017-Jun-13 13:00N 35°27' E 139°39'0 0.0
2017-Jun-13 12:30N 35°27' E 139°39'0 0.7
2017-Jun-13 12:00N 35°28' E 139°39'611.4
2017-Jun-13 11:30N 35°30' E 139°45'1 1.5
2017-Jun-13 11:00N 35°31' E 139°46'1 2.8
2017-Jun-13 10:30N 35°30' E 139°44'5 9.8
2017-Jun-13 10:01N 35°27' E 139°39'0 0.1
2017-Jun-13 09:30N 35°27' E 139°39'1 1.4
2017-Jun-13 09:00N 35°27' E 139°39'0 0.2
2017-Jun-13 08:30N 35°27' E 139°39'0 0.0
2017-Jun-13 08:00N 35°27' E 139°39'0 0.0
2017-Jun-13 07:30N 35°27' E 139°39'0 0.0
2017-Jun-13 07:00N 35°27' E 139°39'0 0.0
2017-Jun-13 06:29N 35°27' E 139°39'0 0.0
2017-Jun-13 06:00N 35°27' E 139°39'0 0.0
2017-Jun-13 05:29N 35°27' E 139°39'0 0.0
2017-Jun-13 04:56N 35°27' E 139°39'0 0.0
2017-Jun-13 04:29N 35°27' E 139°39'0 0.0
2017-Jun-13 03:59N 35°27' E 139°39'0 0.0
2017-Jun-13 03:30N 35°27' E 139°39'0 0.0
2017-Jun-13 03:00N 35°27' E 139°39'0 0.0
2017-Jun-13 02:29N 35°27' E 139°39'  

Dump ship's entire track history